Fairdale, Illinois
Current Conditions -  °F | °C
As of 10:54 AM on Saturday 20 Dec 2014 (Local Time) from KRFD Reporting Station
Light Snow Light Snow  
Wind Chill: 24°   Ceiling: 3700
Heat Index: 29°   Visibility: 5mi
Dew Point: 25°   Wind: 5mph
Humidity: 85%   Direction: 180°S
Pressure: 30.29"   Gusts: NA
Location:  42.1099°N, 88.8811°W
Report Text: KRFD 201654Z 18004KT 5SM -SN BR OVC037 M02/M04 A3029 RMK AO2 SLP266 SNB35 P0000 T10171039
Loading
Personal Weather Stations






























Interactive Weather Map New forecast layout! Learn more

10-Day Weather Forecast

Advertisements
Track Severe Weather on mobile